Date,TemperatureHighF,TemperatureAvgF,TemperatureLowF,DewpointHighF,DewpointAvgF,DewpointLowF,HumidityHigh,HumidityAvg,HumidityLow,PressureMaxIn,PressureMinIn,WindSpeedMaxMPH,WindSpeedAvgMPH,GustSpeedMaxMPH,PrecipitationSumIn
2013-1-1,33.1,22.0,5.6,27.6,14.0,1.0,83,72,56,30.02,29.80,14,2,21,0.00
2013-1-2,25.7,19.4,6.7,19.5,13.5,2.6,87,78,65,30.19,29.96,11,2,14,0.00
2013-1-3,28.4,21.4,12.4,25.2,16.6,7.7,90,82,71,30.18,29.94,11,2,19,0.00
2013-1-4,32.5,30.2,26.1,24.5,22.3,18.3,80,72,67,29.97,29.83,19,8,30,0.00
2013-1-5,35.8,31.8,29.0,26.0,23.6,21.2,75,71,63,30.25,29.98,12,2,18,0.01
2013-1-6,37.2,34.1,29.5,32.3,29.0,21.9,91,81,73,30.03,29.84,11,2,16,0.11
2013-1-7,34.7,28.1,24.2,31.5,21.9,18.6,88,77,65,30.36,30.03,8,1,11,0.00
2013-1-8,39.5,29.5,23.8,26.5,21.7,17.4,88,73,59,30.29,30.12,10,1,11,0.02
2013-1-9,48.0,36.2,25.0,34.8,27.3,19.8,86,71,56,30.26,29.91,22,4,30,0.00
2013-1-10,44.5,37.5,31.8,28.5,26.8,25.1,83,66,50,30.55,30.27,15,1,15,0.00
2013-1-11,44.1,39.9,33.5,39.2,32.7,24.7,90,76,53,30.39,29.84,6,2,14,0.13
2013-1-12,56.7,48.3,41.6,48.9,44.2,38.8,93,86,74,29.94,29.89,5,1,12,0.00
2013-1-13,68.9,55.5,48.2,56.2,50.3,46.0,92,83,63,29.91,29.68,19,2,19,0.00
2013-1-14,53.1,35.6,27.8,50.8,28.0,18.5,92,74,64,30.35,29.67,16,4,27,0.02
2013-1-15,33.5,28.9,25.4,21.8,19.4,17.5,76,68,52,30.36,30.15,5,1,8,0.00
2013-1-16,39.2,32.4,28.4,29.2,24.3,20.8,77,72,62,30.14,29.73,16,2,19,0.00
2013-1-17,35.5,24.9,16.4,28.6,16.9,9.7,85,72,61,30.16,29.79,11,2,16,0.00
2013-1-18,29.0,20.2,11.2,16.1,10.9,5.7,87,69,48,30.40,29.99,11,2,14,0.02
2013-1-19,48.0,40.2,28.1,29.5,23.3,16.0,63,51,39,29.99,29.54,17,4,26,0.01
2013-1-20,48.5,30.6,17.2,34.3,18.4,7.1,87,62,41,30.04,29.39,25,8,31,0.02
2013-1-21,20.8,17.8,12.8,13.6,8.0,1.2,77,65,54,30.03,29.84,12,2,14,0.00
2013-1-22,12.9,9.8,6.9,0.8,-3.1,-7.0,73,56,43,30.16,29.86,17,6,21,0.00
2013-1-23,13.6,9.5,5.2,6.3,1.0,-5.2,84,68,50,30.21,30.07,7,1,11,0.00
2013-1-24,13.3,10.6,7.2,8.5,4.0,-0.1,84,75,61,30.50,30.05,9,1,13,0.00
2013-1-25,16.2,11.8,8.1,9.8,5.0,0.6,82,74,63,30.48,30.07,5,0,9,0.00
2013-1-26,23.8,12.9,0.3,14.3,6.4,-4.9,86,76,53,30.36,30.07,4,0,6,0.01
2013-1-27,27.8,20.6,10.2,16.0,13.2,6.1,88,73,55,30.54,30.34,5,0,9,0.01
2013-1-28,42.6,33.0,23.3,41.5,29.4,15.5,96,87,68,30.32,29.80,7,1,12,0.22
2013-1-29,53.1,40.7,32.2,52.6,39.9,31.2,100,97,95,30.00,29.69,9,1,12,0.37
2013-1-30,62.4,57.0,51.1,55.0,50.9,48.4,98,81,70,29.68,28.97,14,2,19,0.09
2013-1-31,54.1,30.6,21.9,50.9,20.5,7.7,91,67,43,29.65,28.95,25,9,32,0.12
2013-2-1,21.9,19.4,17.0,14.9,11.1,5.1,85,70,55,30.15,29.65,13,4,22,0.02
2013-2-2,21.1,17.4,13.3,13.8,9.4,4.6,81,71,58,30.15,29.94,9,2,14,0.00
2013-2-3,24.2,17.9,11.6,15.3,11.6,8.0,87,76,59,29.94,29.76,11,1,14,0.00
2013-2-4,22.4,18.5,15.2,12.1,8.8,4.2,77,66,47,29.92,29.81,15,3,16,0.00
2013-2-5,27.0,21.5,16.2,18.6,13.7,10.3,85,72,56,29.93,29.80,5,0,6,0.01
2013-2-6,27.2,22.4,12.3,22.2,14.1,7.4,84,71,50,30.36,29.83,11,2,19,0.01
2013-2-7,29.1,23.1,11.9,21.9,13.7,7.7,84,67,56,30.40,30.05,10,2,13,0.00
2013-2-8,34.6,28.3,18.1,30.8,23.7,15.7,93,83,64,30.05,29.73,4,1,9,0.05
2013-2-9,21.4,16.7,4.7,17.0,13.0,0.2,89,85,81,30.40,30.05,0,0,0,0.00
2013-2-10,34.0,18.2,0.7,25.7,12.7,-4.0,88,79,67,30.39,29.92,5,0,7,0.31
2013-2-11,49.5,38.1,32.4,39.7,29.9,24.8,89,72,62,29.92,29.49,24,6,32,0.27
2013-2-12,34.9,32.3,30.7,29.8,25.8,22.6,92,77,62,29.91,29.64,18,6,24,0.01
2013-2-13,37.3,30.1,21.1,24.5,21.9,16.7,85,71,54,29.86,29.68,4,0,6,0.00
2013-2-14,40.6,32.0,21.1,33.5,26.2,17.3,93,80,55,29.88,29.72,6,1,7,0.08
2013-2-15,37.9,33.0,23.0,34.1,22.8,14.2,93,66,53,30.02,29.72,21,5,23,0.01
2013-2-16,29.1,23.4,19.5,18.9,15.6,9.4,86,72,49,30.02,29.88,6,1,9,0.00
2013-2-17,21.1,15.3,11.6,17.6,9.3,1.3,88,77,60,30.16,29.85,11,2,17,0.00
2013-2-18,29.1,19.6,9.3,16.8,10.2,4.6,83,68,47,30.26,29.87,5,1,12,0.11
2013-2-19,42.2,33.2,25.3,35.1,24.1,15.3,89,70,52,29.87,29.48,20,4,29,0.15
2013-2-20,25.4,21.5,18.8,17.7,12.6,8.2,78,69,53,30.02,29.70,19,8,24,0.00
2013-2-21,21.8,17.8,12.6,14.6,11.2,4.9,83,75,66,30.39,29.99,14,2,16,0.00
2013-2-22,33.8,27.1,20.8,27.3,21.1,14.6,88,78,66,30.36,29.97,11,2,14,0.00
2013-2-23,38.6,33.6,30.7,30.9,26.9,22.7,85,76,71,29.96,29.82,8,2,12,0.05
2013-2-24,32.7,30.5,29.4,27.5,23.8,21.1,90,76,64,30.01,29.80,14,3,15,0.00
2013-2-25,35.5,32.1,27.5,27.5,25.5,23.0,83,76,67,30.19,30.01,8,2,11,0.01
2013-2-26,42.8,32.9,22.1,31.4,25.5,18.8,93,76,53,30.20,29.78,12,2,15,0.28
2013-2-27,34.9,33.2,32.5,33.6,31.8,31.0,95,94,93,29.77,29.52,6,2,12,0.55
2013-2-28,37.0,33.8,32.5,33.1,31.4,30.5,95,91,81,29.67,29.48,11,2,13,0.37
2013-3-1,32.7,29.5,24.8,31.0,25.0,18.5,94,84,72,29.88,29.67,4,0,11,0.06
2013-3-2,27.2,24.2,21.8,21.8,19.0,17.1,85,80,72,29.91,29.83,9,2,11,0.00
2013-3-3,24.2,22.7,20.5,20.3,17.1,13.1,86,79,64,29.86,29.81,11,2,14,0.00
2013-3-4,29.3,14.6,22.5,20.5,-37.4,-99.9,80,36,61,30.00,29.85,255,2,17,0.00
2013-3-5,-200.0,0.0,200.0,-99.9,-99.9,-99.9,0,0,100,30.05,29.89,255,0,0,0.00
2013-3-6,38.9,19.3,34.6,31.7,-30.9,-99.9,85,42,72,30.09,29.87,255,2,12,0.17
2013-3-7,34.3,1.4,33.8,30.4,-94.4,-99.9,86,4,85,30.20,30.08,0,0,0,0.00
2013-3-8,42.8,24.8,27.6,26.9,-15.8,-99.9,85,40,44,30.35,30.19,255,1,14,0.02
2013-3-9,49.6,26.4,27.8,32.9,-11.8,-99.9,92,46,40,30.39,30.18,6,1,6,0.00
2013-3-10,64.8,25.9,31.8,49.1,-35.2,-99.9,75,23,26,30.18,29.89,10,1,15,0.03
2013-3-30,55.4,55.4,55.4,19.2,19.2,19.2,24,24,24,29.90,29.90,3,3,9,0.00
2013-3-31,55.4,55.4,55.4,19.2,19.2,19.2,24,24,24,29.90,29.90,3,3,9,0.00
2013-4-1,55.4,55.4,55.4,19.2,19.2,19.2,24,24,24,29.90,29.90,3,3,9,0.00
2013-4-2,55.4,55.4,55.4,19.2,19.2,19.2,24,24,24,29.90,29.90,3,3,9,0.00
2013-4-3,55.4,55.4,55.4,19.2,19.2,19.2,24,24,24,29.90,29.90,3,3,9,0.00
2013-4-4,44.1,37.3,34.6,23.9,21.7,19.4,62,53,43,29.90,29.85,0,0,8,0.00
2013-4-5,43.5,37.9,29.7,29.9,22.7,15.0,69,54,37,30.10,29.82,12,2,16,0.00
2013-4-6,48.4,35.9,21.3,23.2,20.4,17.4,85,55,32,30.28,29.99,8,1,13,0.00
2013-4-7,69.4,54.2,43.3,46.7,32.8,19.9,69,45,34,29.98,29.63,22,4,38,0.00
2013-4-8,55.8,45.1,39.9,43.3,36.2,33.1,92,72,50,30.06,29.69,11,1,15,0.09
2013-4-9,61.3,49.6,42.8,50.5,43.8,40.3,96,81,53,30.05,29.68,13,2,22,0.69
2013-4-10,46.1,42.1,39.0,45.0,41.0,37.8,97,96,93,29.99,29.82,10,2,18,0.63
2013-4-11,39.2,34.7,31.9,38.2,31.6,27.0,96,89,69,30.09,29.91,13,2,22,0.45
2013-4-12,52.5,40.8,34.0,49.0,37.9,31.4,97,90,77,29.91,29.48,14,4,22,0.82
2013-4-13,45.3,41.7,38.9,37.8,34.7,31.6,85,76,62,29.88,29.71,13,5,30,0.00
2013-4-14,46.4,39.7,34.7,34.1,29.2,26.2,91,67,51,30.14,29.88,10,2,14,0.01
2013-4-15,73.9,55.4,34.7,49.4,39.6,26.5,73,57,37,30.12,29.92,7,1,16,0.00
2013-4-16,64.4,56.8,44.3,58.0,49.4,35.5,94,77,64,30.17,29.89,14,2,21,0.13
2013-4-17,53.2,44.6,31.9,36.6,32.8,29.2,96,65,42,30.30,30.17,10,2,14,0.00
2013-4-18,77.4,61.2,44.6,58.9,48.7,32.8,75,64,52,30.19,29.63,18,3,25,0.00
2013-4-19,73.4,58.3,42.0,58.7,48.3,31.4,82,70,58,29.69,29.30,26,5,36,0.09
2013-4-20,42.3,38.0,31.0,33.1,26.8,20.8,89,64,51,30.36,29.67,20,5,28,0.03
2013-4-21,42.6,33.9,24.5,27.4,21.6,12.1,87,62,40,30.63,30.36,9,1,14,0.00
2013-4-22,60.6,46.0,30.1,32.8,25.6,15.9,72,47,29,30.55,30.28,9,1,15,0.00
2013-4-23,65.7,52.3,39.5,39.9,33.8,26.8,69,50,32,30.28,29.88,8,1,13,0.00
2013-4-24,66.9,53.6,38.9,55.6,43.3,34.7,91,69,52,29.93,29.49,16,3,35,0.13
2013-4-25,56.0,44.1,34.3,38.3,33.0,26.4,91,68,35,30.25,29.94,8,2,16,0.00
2013-4-26,54.6,45.1,36.0,37.4,31.6,23.3,95,63,33,30.41,30.25,8,1,17,0.01
2013-4-27,67.6,51.3,36.6,40.3,35.0,29.3,81,57,31,30.38,30.16,8,1,13,0.00
2013-4-28,74.8,57.7,42.5,48.1,40.5,35.1,82,57,24,30.16,29.96,8,1,17,0.08
2013-4-29,65.8,57.6,49.7,53.1,49.2,44.5,89,74,62,29.98,29.91,7,1,14,0.14
2013-4-30,74.3,63.9,56.1,56.3,52.7,50.2,90,69,47,30.15,29.98,9,2,14,0.01
2013-5-1,79.4,66.8,57.2,51.2,45.6,32.8,76,50,24,30.26,30.15,10,1,13,0.00
2013-5-2,75.8,63.6,50.7,45.5,38.5,32.7,56,40,27,30.34,30.19,9,1,16,0.00
2013-5-3,77.8,64.7,51.1,48.6,44.0,40.0,71,49,33,30.23,30.13,11,1,14,0.00
2013-5-4,72.4,62.0,51.8,45.9,42.2,38.1,73,49,35,30.21,30.07,11,2,16,0.00
2013-5-5,76.2,61.3,45.1,46.9,43.3,39.9,87,55,30,30.14,30.01,10,1,15,0.00
2013-5-6,73.6,60.3,46.9,44.6,39.3,31.7,85,48,23,30.09,29.95,9,2,14,0.00
2013-5-7,76.3,63.3,48.8,55.1,50.2,43.8,93,65,42,30.05,29.94,9,1,16,0.00
2013-5-8,70.8,61.4,51.6,59.5,55.1,49.0,96,81,63,29.98,29.85,7,1,12,0.04
2013-5-9,70.5,61.4,55.7,62.4,57.3,53.4,98,87,66,29.88,29.80,6,1,11,0.63
2013-5-10,74.4,60.9,52.7,62.9,56.6,51.3,97,87,65,29.88,29.65,5,0,10,0.41
2013-5-11,59.5,53.0,45.3,58.4,49.7,43.4,97,89,75,29.71,29.58,11,3,19,0.06
2013-5-12,49.5,43.5,37.8,46.7,36.5,30.8,96,77,53,29.86,29.61,16,6,29,0.11
2013-5-13,49.4,41.6,35.7,35.3,32.7,29.9,87,71,53,30.07,29.86,16,5,22,0.00
2013-5-14,57.5,44.8,29.8,39.7,33.4,27.4,96,68,32,30.11,29.90,8,1,11,0.00
2013-5-15,79.7,60.1,45.6,60.9,46.7,36.6,93,63,43,29.90,29.44,18,3,28,0.16
2013-5-16,75.2,61.7,48.3,49.3,43.9,36.0,88,56,27,29.94,29.66,17,3,27,0.00
2013-5-17,65.5,52.9,39.1,44.8,40.5,34.1,96,67,32,30.16,29.94,7,1,11,0.00
2013-5-18,69.5,55.9,40.1,49.4,43.7,38.8,96,67,41,30.20,30.07,11,2,17,0.00
2013-5-19,81.8,68.2,58.6,63.1,57.6,49.1,84,70,49,30.07,29.90,7,1,12,0.00
2013-5-20,82.5,70.9,62.0,67.8,62.3,58.0,88,75,55,29.96,29.78,8,1,12,0.00
2013-5-21,84.6,70.8,60.9,70.8,64.1,58.6,96,80,60,29.86,29.67,9,1,20,0.09
2013-5-22,87.5,72.8,61.8,69.8,65.0,60.7,98,79,47,29.72,29.56,10,1,27,0.07
2013-5-23,75.1,65.9,44.6,63.9,58.5,42.7,93,78,57,29.82,29.61,15,2,18,0.13
2013-5-24,51.8,43.7,38.9,42.8,39.0,37.3,95,85,61,30.14,29.82,8,2,15,0.30
2013-5-25,58.1,48.9,38.0,39.4,37.2,35.1,92,66,45,30.16,30.08,14,2,19,0.00
2013-5-26,62.3,52.5,42.9,39.1,36.7,32.2,81,57,35,30.15,30.07,14,2,18,0.00
2013-5-27,70.7,55.9,39.1,47.1,39.6,34.2,92,59,29,30.21,30.07,7,1,13,0.00
2013-5-28,63.0,56.2,48.8,60.3,52.0,41.5,97,86,65,30.09,29.87,3,0,8,0.88
2013-5-29,80.0,70.4,60.2,67.9,63.4,59.3,99,80,56,29.94,29.82,18,3,26,0.99
2013-5-30,86.8,74.4,61.4,68.0,63.2,58.1,96,71,38,30.03,29.94,10,2,15,0.00
2013-5-31,88.1,76.7,65.8,71.6,65.7,62.0,94,71,42,29.99,29.84,10,1,15,0.00
2013-6-1,87.5,75.2,67.8,70.0,66.0,62.0,97,75,50,29.88,29.68,11,2,25,0.39
2013-6-2,74.6,68.8,57.6,68.2,62.6,52.2,98,82,57,29.81,29.61,18,4,29,0.44
2013-6-3,63.1,55.7,50.2,51.9,45.7,41.3,86,70,47,29.95,29.81,10,2,17,0.00
2013-6-4,66.4,56.0,46.7,46.5,42.9,38.0,90,64,36,30.10,29.95,7,1,12,0.00
2013-6-5,66.7,56.8,46.8,53.3,45.0,40.1,91,67,43,30.16,30.02,13,2,15,0.00
2013-6-6,58.9,55.9,53.3,57.8,52.8,44.0,97,90,62,30.02,29.77,9,2,11,1.41
2013-6-7,61.5,57.9,54.8,58.9,56.8,54.5,99,96,89,29.79,29.73,4,0,8,0.06
2013-6-8,63.5,59.1,54.9,59.6,56.3,53.4,100,91,78,30.00,29.74,6,1,10,0.02
2013-6-9,73.9,63.6,54.2,60.2,54.6,50.8,90,74,55,30.13,30.00,8,2,10,0.00
2013-6-10,71.1,64.8,59.1,64.8,60.8,55.7,97,87,74,30.05,29.63,9,1,11,0.11
2013-6-11,67.9,64.2,58.3,64.9,61.3,54.8,98,91,78,29.77,29.56,12,2,14,0.19
2013-6-12,75.1,63.8,50.9,59.7,54.9,50.4,99,75,45,29.86,29.70,5,1,11,0.00
2013-6-13,65.7,60.5,54.3,59.5,57.4,53.5,97,90,77,29.71,29.44,16,3,24,1.39
2013-6-14,72.7,62.8,52.8,61.6,57.0,52.3,99,83,59,29.91,29.71,8,1,14,0.00
2013-6-15,74.2,63.7,51.2,57.4,52.1,45.4,96,69,37,29.98,29.87,7,2,13,0.00
2013-6-16,75.5,65.7,60.0,66.9,60.2,53.5,96,83,71,29.87,29.63,8,2,17,0.23
2013-6-17,77.3,68.2,58.4,65.4,60.6,56.8,97,78,57,29.86,29.75,10,2,14,0.00
2013-6-18,68.0,59.8,51.4,58.4,52.2,47.6,97,78,50,29.95,29.82,11,2,15,0.03
2013-6-19,66.5,57.9,46.3,51.3,46.4,39.8,95,68,38,30.13,29.95,9,1,14,0.00
2013-6-20,74.1,58.7,42.6,53.8,46.9,41.7,97,70,36,30.19,30.13,7,1,14,0.00
2013-6-21,80.4,64.7,48.7,58.2,52.8,46.5,96,69,31,30.21,30.10,7,1,11,0.00
2013-6-22,84.9,73.9,57.0,71.8,64.5,54.8,93,74,53,30.10,29.92,6,1,14,0.00
2013-6-23,87.7,78.6,69.9,73.4,68.6,65.3,93,73,51,29.98,29.91,10,2,16,0.02
2013-6-24,85.2,77.2,67.7,70.9,66.4,62.6,92,71,51,29.95,29.85,15,3,18,0.00
2013-6-25,80.6,74.3,68.1,71.8,66.6,63.7,90,78,65,29.86,29.71,13,2,18,0.02
2013-6-26,82.9,74.3,66.0,70.4,66.6,62.6,90,78,61,29.74,29.69,10,3,14,0.00
2013-6-27,78.3,70.4,62.7,72.7,67.0,61.5,97,89,76,29.73,29.56,3,0,9,0.20
2013-6-28,66.8,63.9,61.2,66.2,63.1,60.4,98,97,96,29.55,29.43,8,1,11,0.75
2013-6-29,75.5,66.3,61.2,67.5,63.4,60.6,99,91,68,29.63,29.43,5,0,11,0.63
2013-6-30,75.8,67.1,58.2,67.7,62.5,57.9,99,86,69,29.85,29.62,7,1,13,0.00
2013-7-1,66.4,63.9,59.9,64.2,61.9,58.8,97,93,85,29.98,29.85,13,3,16,0.34
2013-7-2,75.4,65.8,59.6,70.8,63.5,58.5,98,93,81,30.03,29.94,10,1,14,0.05
2013-7-3,83.4,72.0,64.8,74.6,69.3,64.5,100,92,65,30.07,30.00,6,0,9,0.96
2013-7-4,84.0,74.3,68.3,73.5,70.6,67.8,99,89,61,30.09,30.02,6,1,10,0.04
2013-7-5,82.8,74.5,68.7,75.7,70.7,67.5,98,88,70,30.06,29.97,7,1,14,0.99
2013-7-6,84.3,74.4,67.0,72.7,68.1,64.6,96,82,56,30.07,29.95,4,0,8,0.00
2013-7-7,81.0,75.3,70.1,72.4,69.3,65.5,98,82,67,29.98,29.85,8,2,14,0.01
2013-7-8,83.3,74.2,69.1,73.2,69.1,65.9,97,85,64,29.96,29.89,7,1,10,0.11
2013-7-9,81.0,74.0,68.6,73.7,70.3,67.4,98,89,70,29.96,29.82,6,0,12,0.04
2013-7-10,84.2,76.6,70.0,74.6,70.5,64.3,97,82,66,29.82,29.61,13,3,21,0.00
2013-7-11,77.4,68.7,60.0,66.0,60.5,57.0,96,76,56,29.94,29.74,9,1,13,0.00
2013-7-12,74.2,66.0,58.6,67.4,62.1,58.0,98,88,69,30.11,29.94,6,1,13,0.00
2013-7-13,80.7,70.3,58.8,71.7,66.0,58.3,99,87,70,30.17,30.09,6,0,11,0.00
2013-7-14,86.7,76.1,66.9,75.6,70.0,66.3,99,83,60,30.22,30.16,6,0,8,0.00
2013-7-15,87.9,77.9,68.2,75.8,70.7,64.9,96,80,51,30.21,30.14,5,0,10,0.00
2013-7-16,89.3,77.8,67.1,74.5,69.3,64.9,98,77,49,30.20,30.12,5,0,10,0.00
2013-7-17,91.1,81.4,70.7,80.1,73.9,68.9,96,79,54,30.14,29.99,8,2,15,0.00
2013-7-18,89.2,81.7,74.7,78.5,74.8,71.6,96,80,63,30.01,29.86,9,2,14,0.00
2013-7-19,90.6,81.1,68.8,76.0,71.4,64.6,94,74,51,29.86,29.62,16,4,28,0.03
2013-7-20,80.4,72.0,65.0,70.1,66.4,59.1,98,84,49,29.81,29.62,12,2,16,0.01
2013-7-21,74.4,67.0,59.3,63.9,61.0,58.2,98,82,63,29.94,29.81,7,1,14,0.00
2013-7-22,78.3,68.0,57.1,67.6,62.1,56.5,98,83,56,29.93,29.71,8,1,10,0.00
2013-7-23,83.1,73.0,66.2,69.6,66.5,58.5,98,81,54,29.70,29.53,13,1,18,0.01
2013-7-24,66.6,61.2,51.7,58.9,52.7,49.2,96,75,54,29.98,29.62,9,2,13,0.00
2013-7-25,72.1,60.5,48.1,56.6,51.5,47.3,98,75,45,30.06,29.98,9,1,15,0.00
2013-7-26,75.0,62.3,48.6,60.0,53.6,47.8,98,76,48,30.06,29.94,6,1,10,0.00
2013-7-27,79.1,67.7,55.7,66.1,61.2,53.3,96,81,61,29.94,29.75,6,0,13,0.01
2013-7-28,74.8,66.5,57.8,65.5,62.1,56.4,97,87,61,29.91,29.73,5,0,11,0.00
2013-7-29,69.8,63.0,54.8,59.2,56.2,53.3,96,79,60,30.06,29.90,8,2,15,0.00
2013-7-30,75.2,64.6,55.7,63.9,58.0,54.3,96,81,55,30.13,30.06,7,1,12,0.00
2013-7-31,79.3,66.2,55.3,65.1,59.7,54.5,98,82,51,30.09,29.86,5,0,7,0.00
2013-8-1,76.9,68.0,62.5,69.5,63.7,60.7,98,87,63,29.86,29.70,9,1,16,0.03
2013-8-2,74.1,65.4,57.0,67.4,60.8,56.0,99,86,56,29.82,29.75,9,1,13,0.14
2013-8-3,75.0,67.0,60.2,62.1,59.4,54.0,98,79,51,29.85,29.75,8,2,13,0.16
2013-8-4,70.8,62.9,54.1,60.0,55.5,51.8,95,78,54,29.99,29.86,10,2,14,0.00
2013-8-5,73.5,60.6,48.9,59.5,53.5,48.3,98,80,48,30.05,29.95,7,0,9,0.00
2013-8-6,78.9,64.8,52.3,62.4,56.8,51.5,98,78,45,29.99,29.91,5,0,9,0.00
2013-8-7,82.1,72.4,64.2,68.3,64.4,59.5,89,76,63,29.92,29.79,7,1,16,0.01
2013-8-8,82.7,72.7,66.5,73.4,68.6,64.2,98,88,69,29.88,29.82,9,1,14,0.32
2013-8-9,77.7,69.9,64.8,69.5,66.3,60.6,100,89,62,29.84,29.77,6,1,12,1.18
2013-8-10,71.7,64.8,54.3,61.9,57.1,51.6,97,78,51,30.02,29.85,9,2,13,0.00
2013-8-11,74.9,62.4,50.3,60.0,55.3,49.8,99,80,48,30.06,29.96,5,0,10,0.00
2013-8-12,76.9,67.5,59.8,65.4,61.0,58.0,95,81,54,29.98,29.78,5,0,9,0.00
2013-8-13,71.4,65.1,58.0,68.0,59.9,49.3,99,84,61,29.79,29.67,11,2,19,0.74
2013-8-14,67.8,59.3,53.0,56.3,52.2,49.4,96,78,53,30.01,29.77,16,2,17,0.03
2013-8-15,72.9,61.2,49.7,56.5,51.7,48.2,95,73,47,30.07,30.00,7,2,15,0.00
2013-8-16,75.0,62.4,49.6,61.1,55.2,48.8,98,80,51,30.14,30.04,5,0,9,0.00
2013-8-17,78.5,66.7,53.6,62.3,57.8,53.0,98,76,44,30.23,30.14,8,1,9,0.00
2013-8-18,79.3,66.2,55.8,63.5,58.9,54.5,97,80,49,30.18,30.03,6,0,7,0.00
2013-8-19,79.9,68.0,55.9,66.9,61.3,55.3,99,81,52,30.05,29.95,5,0,8,0.00
2013-8-20,82.1,70.1,57.3,66.2,61.9,56.5,98,78,49,30.05,29.98,10,1,11,0.00
2013-8-21,84.5,71.3,59.9,68.3,63.0,58.5,97,77,47,30.08,29.94,7,1,10,0.00
2013-8-22,82.2,71.9,63.2,71.6,66.0,57.6,95,82,68,29.95,29.82,10,2,19,0.00
2013-8-23,72.3,63.7,53.6,59.8,56.7,52.5,98,80,51,30.14,29.91,7,1,13,0.00
2013-8-24,74.6,60.7,48.8,59.1,52.0,48.0,99,77,39,30.29,30.14,8,1,11,0.00
2013-8-25,81.2,66.3,50.6,62.6,55.6,49.8,98,72,41,30.27,30.05,9,1,13,0.01
2013-8-26,76.6,69.4,63.8,70.5,66.4,61.5,97,90,77,30.07,29.84,10,2,17,0.63
2013-8-27,82.3,72.3,66.6,74.2,69.9,66.1,100,93,74,29.86,29.79,4,1,10,0.00
2013-8-28,81.5,73.6,66.9,73.6,70.4,66.6,100,91,74,29.87,29.77,7,1,13,0.87
2013-8-29,81.8,71.7,63.9,73.3,68.1,63.5,100,89,68,29.97,29.87,5,0,11,0.00
2013-8-30,81.8,72.0,62.5,72.8,67.0,62.2,100,86,64,29.93,29.68,5,0,9,0.00
2013-8-31,79.7,73.2,65.8,72.4,69.4,65.0,98,88,74,29.77,29.63,8,1,12,0.02
2013-9-1,78.0,70.6,64.3,70.9,68.0,64.0,100,92,77,29.77,29.68,8,1,11,0.03
2013-9-2,80.7,71.2,63.6,72.9,67.3,58.3,99,88,68,29.72,29.59,8,1,16,0.01
2013-9-3,65.8,62.9,59.7,59.8,58.0,56.4,91,84,77,29.86,29.70,9,2,15,0.00
2013-9-4,75.9,65.0,51.0,64.1,56.8,50.3,99,77,43,29.92,29.86,11,3,16,0.20
2013-9-5,64.1,56.7,44.8,61.6,50.2,42.2,99,81,49,30.16,29.90,8,1,14,0.01
2013-9-6,69.1,55.0,41.6,53.9,46.9,40.8,98,77,44,30.23,30.03,4,0,8,0.00
2013-9-7,64.5,58.6,51.4,61.7,55.2,49.4,95,89,80,30.03,29.80,8,1,13,0.09
2013-9-8,65.7,60.2,46.6,64.8,52.8,44.1,97,79,49,30.04,29.78,11,2,16,0.06
2013-9-9,74.9,58.5,44.6,65.3,52.6,43.8,98,82,57,30.09,29.89,5,0,11,0.00
2013-9-10,88.9,76.8,65.5,76.6,70.0,61.5,96,81,64,29.91,29.82,10,2,16,0.18
2013-9-11,90.0,80.3,72.8,75.1,72.2,66.4,93,77,58,29.94,29.81,9,1,16,0.00
2013-9-12,73.5,68.4,59.4,69.1,65.6,57.4,97,91,81,29.84,29.64,7,1,12,0.11
2013-9-13,59.5,54.2,49.5,58.4,52.5,48.4,97,94,86,29.95,29.67,7,1,14,0.24
2013-9-14,60.8,51.3,45.0,49.8,45.8,42.2,97,83,53,30.06,29.94,9,1,13,0.01
2013-9-15,67.1,54.6,43.2,56.1,48.9,41.9,96,82,60,30.10,29.99,7,1,9,0.08
2013-9-16,54.6,49.7,41.7,53.7,47.9,41.0,99,94,78,30.31,30.00,13,1,16,0.07
2013-9-17,64.0,49.1,35.8,49.0,42.6,35.3,99,81,45,30.44,30.24,8,0,11,0.01
2013-9-18,72.8,54.9,42.7,54.3,46.3,41.2,97,77,33,30.23,30.04,7,0,10,0.00
2013-9-19,77.0,60.8,47.9,62.6,53.9,46.8,98,81,46,30.06,29.94,5,0,8,0.00
2013-9-20,83.8,68.4,54.4,67.0,61.0,53.6,98,79,55,29.95,29.69,9,1,12,0.00
2013-9-21,70.9,63.2,53.2,62.5,60.0,52.4,98,90,72,29.69,29.55,12,1,17,0.94
2013-9-22,55.5,51.4,49.0,52.1,46.3,42.6,96,83,64,29.96,29.66,11,2,16,0.00
2013-9-23,57.9,49.9,40.5,46.2,43.5,39.7,97,80,55,30.10,29.96,8,1,12,0.00
2013-9-24,63.9,49.6,38.7,50.4,43.7,38.2,99,83,50,30.09,29.95,6,1,11,0.00
2013-9-25,67.4,51.4,38.6,54.9,45.6,37.8,98,83,50,29.96,29.90,6,1,11,0.00
2013-9-26,68.5,53.0,39.3,57.5,48.8,38.8,99,87,63,30.09,29.94,8,1,11,0.00
2013-9-27,65.5,53.3,43.5,57.8,50.3,43.0,99,90,71,30.20,30.09,8,1,10,0.00
2013-9-28,73.4,56.7,43.3,60.9,51.6,42.8,99,85,55,30.24,30.11,6,0,9,0.00
2013-9-29,75.3,59.3,45.8,57.8,52.0,44.8,98,79,47,30.11,29.92,4,0,10,0.00
2013-9-30,74.7,63.0,54.8,62.8,56.7,51.4,95,81,61,29.95,29.86,5,0,7,0.00
2013-10-1,74.3,65.1,55.3,61.8,58.3,54.7,99,80,53,29.95,29.83,7,1,13,0.00
2013-10-2,76.4,66.5,55.2,63.9,59.8,52.9,97,81,47,30.01,29.83,12,2,13,0.00
2013-10-3,71.3,57.8,43.7,57.8,50.3,43.2,99,80,37,30.07,29.95,3,0,7,0.00
2013-10-4,65.2,61.6,58.4,64.8,60.1,54.4,99,95,82,30.00,29.92,5,0,9,0.28
2013-10-5,62.1,60.0,57.8,60.4,57.9,55.8,97,93,86,30.03,29.97,10,1,12,0.12
2013-10-6,82.2,68.2,59.0,73.2,65.1,57.6,99,91,69,29.97,29.65,6,0,13,0.47
2013-10-7,73.5,60.2,50.2,66.1,55.4,47.4,97,84,72,29.96,29.55,12,3,25,0.74
2013-10-8,63.2,51.4,41.6,50.0,45.4,40.8,98,82,49,30.29,29.97,5,1,11,0.00
2013-10-9,67.0,50.7,38.1,52.5,45.3,37.6,99,84,49,30.35,30.22,7,0,10,0.00
2013-10-10,66.2,50.5,38.8,48.6,43.8,37.8,97,81,43,30.22,30.10,7,0,10,0.00
2013-10-11,68.1,51.2,40.9,53.8,46.6,40.4,99,86,53,30.11,30.06,9,1,13,0.00
2013-10-12,73.6,55.4,39.1,52.7,44.3,38.6,99,72,35,30.13,30.07,10,1,13,0.00
2013-10-13,69.2,60.8,48.9,62.0,54.4,43.5,98,80,65,30.20,30.12,4,1,11,0.11
2013-10-14,62.7,55.3,42.9,59.4,51.8,42.1,98,89,64,30.27,30.18,4,1,11,0.12
2013-10-15,67.6,53.3,39.2,57.9,49.7,38.7,99,89,68,30.22,29.89,5,0,11,0.00
2013-10-16,65.3,60.7,56.6,58.7,55.4,51.3,95,83,71,29.89,29.68,8,2,12,0.27
2013-10-17,61.8,54.6,45.6,53.5,50.2,44.3,97,86,65,29.81,29.60,7,1,10,0.39
2013-10-18,59.6,52.4,48.0,51.4,44.7,38.9,97,77,48,29.84,29.65,16,3,20,0.02
2013-10-19,62.2,52.6,43.4,49.1,44.6,40.7,92,75,52,29.83,29.56,12,2,18,0.07
2013-10-20,53.0,46.4,38.6,44.9,41.3,36.9,94,83,63,29.92,29.68,13,2,14,0.00
2013-10-21,67.0,54.7,43.7,49.2,41.6,37.5,93,65,36,29.92,29.72,9,2,16,0.00
2013-10-22,51.5,45.0,35.0,48.1,37.2,28.5,96,75,49,29.79,29.67,13,3,26,0.28
2013-10-23,45.1,38.6,34.0,39.4,34.9,30.5,96,87,75,29.76,29.64,5,1,11,0.03
2013-10-24,48.2,39.3,33.4,37.5,33.6,30.8,95,81,53,29.95,29.73,15,3,24,0.25
2013-10-25,48.3,40.5,33.8,41.7,36.5,32.8,97,86,64,30.13,29.95,10,2,18,0.02
2013-10-26,45.8,42.2,38.0,37.3,33.7,29.1,93,73,53,30.07,29.72,12,4,26,0.02
2013-10-27,46.9,41.8,36.5,38.7,36.3,33.5,94,81,63,30.00,29.75,8,2,15,0.01
2013-10-28,48.3,40.5,27.1,40.4,32.3,23.8,92,74,40,30.34,29.97,7,1,14,0.00
2013-10-29,45.2,34.6,24.1,34.0,27.6,22.4,94,77,51,30.43,30.25,8,1,9,0.00
2013-10-30,55.8,44.1,37.2,42.8,39.2,33.9,97,84,57,30.25,30.04,6,0,8,0.06
2013-10-31,67.7,55.2,41.7,60.6,51.1,38.6,98,87,70,30.04,29.30,11,1,17,0.47
2013-11-1,63.4,56.6,47.6,59.0,50.2,44.4,95,80,63,29.60,29.12,14,6,40,0.27
2013-11-2,50.1,44.6,37.3,46.5,42.7,34.3,97,93,82,29.93,29.53,8,1,19,0.33
2013-11-3,37.5,33.1,25.4,34.5,26.2,22.7,91,76,57,30.48,29.94,9,1,15,0.01
2013-11-4,42.3,33.1,22.5,27.0,22.9,19.3,94,69,41,30.61,30.39,8,1,15,0.00
2013-11-5,57.4,45.7,36.1,37.2,29.6,19.7,66,53,45,30.42,30.27,8,1,12,0.00
2013-11-6,65.3,55.5,46.5,55.5,44.8,34.2,95,68,56,30.27,29.72,9,2,17,0.06
2013-11-7,57.5,44.3,38.4,55.8,38.0,30.9,94,79,61,29.92,29.71,9,3,19,0.17
2013-11-8,42.6,38.4,34.7,34.3,30.7,26.9,89,74,55,30.17,29.89,10,3,29,0.04
2013-11-9,50.1,41.7,33.3,43.7,33.2,28.6,93,73,56,30.16,29.71,7,1,16,0.04
2013-11-10,49.6,43.6,39.1,43.5,36.7,31.6,92,77,65,30.09,29.71,14,5,26,0.09
2013-11-11,45.0,37.0,29.7,37.6,32.4,27.9,95,84,61,30.10,29.86,12,2,22,0.39
2013-11-12,32.8,28.0,23.8,28.2,22.6,19.6,94,80,69,30.34,30.06,9,2,16,0.12
2013-11-13,37.9,28.7,15.1,28.9,21.4,12.8,93,75,55,30.38,30.01,14,3,23,0.05
2013-11-14,49.4,41.6,35.0,28.5,21.8,17.9,65,46,32,30.05,29.94,18,6,33,0.01
2013-11-15,52.3,44.5,36.0,31.4,25.4,19.6,65,48,36,30.06,29.98,10,1,14,0.00
2013-11-16,59.4,49.1,37.3,41.9,34.8,25.9,71,58,46,30.18,29.97,5,0,9,0.00
2013-11-17,60.9,56.3,51.9,54.8,50.4,42.0,92,81,69,29.97,29.29,11,3,22,0.17
2013-11-18,55.1,46.6,36.3,48.6,36.9,28.2,84,69,60,29.82,29.31,26,9,38,0.03
2013-11-19,37.1,34.1,24.2,30.5,26.6,21.7,90,74,62,30.40,29.82,13,3,25,0.00
2013-11-20,38.4,28.8,20.4,25.0,21.5,18.4,93,76,51,30.56,30.40,5,0,10,0.00
2013-11-21,44.2,38.3,30.7,37.5,26.6,17.1,91,63,50,30.41,30.20,12,2,15,0.02
2013-11-22,47.4,41.7,32.7,46.9,40.1,28.1,98,94,80,30.20,29.92,14,2,21,0.29
2013-11-23,35.5,28.1,19.2,28.2,22.3,11.0,92,79,59,30.14,29.94,13,4,25,0.00
2013-11-24,24.0,20.0,16.7,17.2,14.1,10.9,87,78,62,30.36,30.12,16,4,20,0.00
2013-11-25,34.7,27.6,16.7,23.7,16.1,9.4,86,64,39,30.35,30.05,13,2,19,0.01
2013-11-26,36.3,33.8,32.5,32.0,28.7,23.6,97,82,68,30.09,29.76,9,1,18,0.00
2013-11-27,34.0,30.3,22.4,32.5,28.1,19.0,98,92,80,29.84,29.57,11,2,20,0.02
2013-11-28,27.6,22.3,15.4,19.1,16.8,12.0,92,80,60,30.38,29.85,10,2,16,0.07
2013-11-29,28.6,19.7,8.4,20.8,14.8,5.8,94,82,56,30.70,30.38,7,0,9,0.16
2013-11-30,32.1,21.8,7.7,24.4,16.1,5.1,91,79,64,30.69,30.15,8,1,15,0.00
2013-12-1,38.4,34.0,30.1,33.7,29.3,24.1,95,83,70,30.15,29.91,6,0,9,0.25
2013-12-2,39.8,36.1,30.5,34.5,33.1,29.2,96,89,78,29.91,29.80,2,0,4,0.07
2013-12-3,40.1,31.7,25.9,31.0,28.0,24.9,97,87,63,29.96,29.85,5,0,8,0.01
2013-12-4,48.8,38.8,32.3,40.5,35.1,29.1,94,87,72,29.98,29.83,4,0,7,0.01
2013-12-5,60.6,50.0,39.9,54.4,44.4,33.7,88,81,62,29.94,29.67,15,3,26,0.00
2013-12-6,39.4,33.9,31.3,35.0,28.7,24.3,94,81,71,30.19,29.94,7,2,12,0.12
2013-12-7,31.2,28.1,24.4,25.8,19.9,15.3,84,72,55,30.51,30.18,9,4,16,0.00
2013-12-8,29.0,24.7,18.8,23.3,16.1,13.2,90,70,54,30.53,30.17,9,1,13,0.00
2013-12-9,38.8,34.0,26.7,35.6,29.6,23.1,93,84,71,30.16,29.80,18,4,29,0.10
2013-12-10,32.8,24.8,19.4,26.4,16.5,10.2,92,71,57,29.99,29.85,13,4,22,0.00
2013-12-11,25.3,21.3,13.3,19.9,13.7,8.0,90,73,58,30.22,29.99,18,4,25,0.00
2013-12-12,20.3,15.2,9.7,15.0,9.8,5.4,90,79,59,30.28,29.99,12,3,24,0.00
2013-12-13,23.2,18.5,10.0,20.1,13.1,5.6,90,79,67,30.35,29.98,15,3,28,0.00
2013-12-14,22.3,13.8,9.5,20.6,10.7,5.6,93,87,82,30.41,29.71,10,2,16,0.00
2013-12-15,24.9,21.9,19.4,23.4,19.2,12.6,94,89,73,29.80,29.56,11,2,20,0.00
2013-12-16,22.6,13.3,-1.8,15.3,8.6,-5.0,88,82,67,30.14,29.80,14,2,24,0.00
2013-12-17,27.2,16.4,-2.7,24.7,13.6,-6.1,93,89,81,30.12,29.87,7,0,12,0.00
2013-12-18,32.0,27.8,22.1,24.8,22.3,20.1,94,80,66,30.01,29.88,8,2,14,0.00
2013-12-19,42.5,34.7,26.5,33.4,27.5,19.0,90,75,61,29.99,29.83,11,2,20,0.37
2013-12-20,42.0,37.6,34.4,40.8,36.5,32.9,98,96,89,29.95,29.73,1,0,5,0.28
2013-12-21,48.1,37.4,31.4,47.8,36.9,30.6,99,98,97,29.84,29.66,7,1,18,0.82
2013-12-22,43.1,35.4,31.5,42.5,34.5,30.7,99,97,89,29.91,29.54,11,1,18,0.99
2013-12-23,40.4,34.9,25.6,37.7,31.9,21.4,92,89,83,30.20,29.89,6,1,16,0.00
2013-12-24,25.4,20.2,11.9,22.6,17.4,8.9,94,89,84,30.45,30.15,7,1,14,0.00
2013-12-25,24.8,13.5,0.7,16.9,8.7,-2.3,93,81,69,30.49,30.17,4,0,11,0.00
2013-12-26,32.3,27.3,22.9,28.5,21.4,15.5,92,78,71,30.23,30.02,10,2,16,0.04
2013-12-27,32.5,27.0,19.8,28.2,22.8,13.6,93,84,73,30.23,30.03,9,1,14,0.00
2013-12-28,42.8,37.3,29.4,34.9,31.3,25.8,93,79,63,30.03,29.88,10,3,20,0.03
2013-12-29,45.1,39.4,28.5,39.4,33.5,25.9,95,80,58,29.87,29.56,9,1,16,0.05
2013-12-30,28.3,18.4,12.3,25.7,14.3,9.4,91,84,73,30.17,29.70,11,2,19,0.00
2013-12-31,24.4,18.0,14.5,19.9,11.3,4.1,88,75,61,30.18,29.92,16,4,25,0.00
2014-1-1,20.8,17.0,15.1,14.3,10.8,7.8,91,77,62,30.36,30.18,8,2,13,0.00
2014-1-2,15.4,11.1,4.7,13.2,8.8,2.2,91,90,89,30.26,29.95,14,5,22,0.00